sensor_id;sensor_type;location;lat;lon;timestamp;pressure;altitude;pressure_sealevel;temperature;humidity
14089;BME280;7120;52.890;6.040;2023-01-29T00:01:58;102825.91;;;5.61;82.75
14089;BME280;7120;52.890;6.040;2023-01-29T00:04:24;102834.56;;;5.76;82.18
14089;BME280;7120;52.890;6.040;2023-01-29T00:06:49;102827.81;;;5.61;82.61
14089;BME280;7120;52.890;6.040;2023-01-29T00:09:15;102834.09;;;5.86;82.16
14089;BME280;7120;52.890;6.040;2023-01-29T00:11:40;102833.38;;;5.97;82.29
14089;BME280;7120;52.890;6.040;2023-01-29T00:14:06;102829.25;;;5.95;82.35
14089;BME280;7120;52.890;6.040;2023-01-29T00:16:31;102819.34;;;5.75;82.49
14089;BME280;7120;52.890;6.040;2023-01-29T00:18:57;102824.63;;;5.95;82.27
14089;BME280;7120;52.890;6.040;2023-01-29T00:21:22;102824.06;;;5.87;82.11
14089;BME280;7120;52.890;6.040;2023-01-29T00:23:48;102814.78;;;5.69;82.12
14089;BME280;7120;52.890;6.040;2023-01-29T00:26:15;102830.41;;;5.74;82.88
14089;BME280;7120;52.890;6.040;2023-01-29T00:28:40;102818.13;;;5.71;82.66
14089;BME280;7120;52.890;6.040;2023-01-29T00:31:11;102821.09;;;5.63;83.85
14089;BME280;7120;52.890;6.040;2023-01-29T00:33:36;102822.78;;;5.64;82.78
14089;BME280;7120;52.890;6.040;2023-01-29T00:36:06;102821.22;;;5.75;82.85
14089;BME280;7120;52.890;6.040;2023-01-29T00:38:32;102827.25;;;5.77;82.79
14089;BME280;7120;52.890;6.040;2023-01-29T00:41:19;102817.31;;;5.96;82.34
14089;BME280;7120;52.890;6.040;2023-01-29T00:44:04;102820.97;;;6.08;81.40
14089;BME280;7120;52.890;6.040;2023-01-29T00:46:48;102816.66;;;6.00;82.11
14089;BME280;7120;52.890;6.040;2023-01-29T00:49:14;102825.34;;;6.09;81.69
14089;BME280;7120;52.890;6.040;2023-01-29T00:51:39;102810.53;;;5.80;82.53
14089;BME280;7120;52.890;6.040;2023-01-29T00:54:05;102809.47;;;5.81;82.53
14089;BME280;7120;52.890;6.040;2023-01-29T00:56:35;102810.03;;;5.90;81.81
14089;BME280;7120;52.890;6.040;2023-01-29T00:59:01;102805.66;;;5.89;82.42
14089;BME280;7120;52.890;6.040;2023-01-29T01:01:27;102813.38;;;5.92;82.52
14089;BME280;7120;52.890;6.040;2023-01-29T01:04:11;102812.38;;;5.86;82.60
14089;BME280;7120;52.890;6.040;2023-01-29T01:06:38;102819.56;;;5.99;82.59
14089;BME280;7120;52.890;6.040;2023-01-29T01:09:05;102801.28;;;5.88;81.99
14089;BME280;7120;52.890;6.040;2023-01-29T01:11:48;102807.69;;;6.18;81.94
14089;BME280;7120;52.890;6.040;2023-01-29T01:14:14;102798.75;;;5.93;81.55
14089;BME280;7120;52.890;6.040;2023-01-29T01:16:39;102799.22;;;5.83;81.85
14089;BME280;7120;52.890;6.040;2023-01-29T01:19:05;102803.50;;;5.97;81.99
14089;BME280;7120;52.890;6.040;2023-01-29T01:21:31;102793.66;;;6.03;82.25
14089;BME280;7120;52.890;6.040;2023-01-29T01:23:57;102796.69;;;5.88;81.99
14089;BME280;7120;52.890;6.040;2023-01-29T01:26:22;102808.06;;;6.03;82.17
14089;BME280;7120;52.890;6.040;2023-01-29T01:28:47;102799.97;;;5.97;81.39
14089;BME280;7120;52.890;6.040;2023-01-29T01:31:13;102808.44;;;6.07;81.46
14089;BME280;7120;52.890;6.040;2023-01-29T01:33:40;102803.75;;;5.96;82.16
14089;BME280;7120;52.890;6.040;2023-01-29T01:36:06;102804.97;;;6.00;81.69
14089;BME280;7120;52.890;6.040;2023-01-29T01:38:37;102817.91;;;6.23;80.39
14089;BME280;7120;52.890;6.040;2023-01-29T01:41:15;102811.03;;;6.20;80.20
14089;BME280;7120;52.890;6.040;2023-01-29T01:44:01;102797.13;;;6.10;80.60
14089;BME280;7120;52.890;6.040;2023-01-29T01:46:28;102811.81;;;6.27;80.07
14089;BME280;7120;52.890;6.040;2023-01-29T01:49:04;102810.53;;;6.05;81.32
14089;BME280;7120;52.890;6.040;2023-01-29T01:51:33;102815.97;;;6.05;81.20
14089;BME280;7120;52.890;6.040;2023-01-29T01:54:05;102819.00;;;5.90;81.39
14089;BME280;7120;52.890;6.040;2023-01-29T01:56:34;102825.22;;;6.22;80.57
14089;BME280;7120;52.890;6.040;2023-01-29T01:59:06;102819.97;;;6.27;79.67
14089;BME280;7120;52.890;6.040;2023-01-29T02:01:33;102820.41;;;6.24;79.70
14089;BME280;7120;52.890;6.040;2023-01-29T02:04:03;102823.00;;;6.13;79.93
14089;BME280;7120;52.890;6.040;2023-01-29T02:06:47;102819.25;;;6.14;79.79
14089;BME280;7120;52.890;6.040;2023-01-29T02:09:55;102824.69;;;6.14;79.89
14089;BME280;7120;52.890;6.040;2023-01-29T02:12:19;102818.13;;;6.21;79.58
14089;BME280;7120;52.890;6.040;2023-01-29T02:14:45;102812.72;;;6.40;79.69
14089;BME280;7120;52.890;6.040;2023-01-29T02:17:16;102814.72;;;6.26;79.32
14089;BME280;7120;52.890;6.040;2023-01-29T02:19:58;102817.84;;;6.29;79.84
14089;BME280;7120;52.890;6.040;2023-01-29T02:22:37;102823.34;;;6.23;79.15
14089;BME280;7120;52.890;6.040;2023-01-29T02:36:34;102817.16;;;6.52;78.28
14089;BME280;7120;52.890;6.040;2023-01-29T02:39:27;102812.53;;;6.16;79.45
14089;BME280;7120;52.890;6.040;2023-01-29T02:42:08;102799.72;;;6.23;80.06
14089;BME280;7120;52.890;6.040;2023-01-29T02:44:41;102799.47;;;6.07;80.52
14089;BME280;7120;52.890;6.040;2023-01-29T02:47:27;102783.31;;;5.87;81.39
14089;BME280;7120;52.890;6.040;2023-01-29T02:52:34;102776.00;;;5.62;82.13
14089;BME280;7120;52.890;6.040;2023-01-29T02:55:06;102759.41;;;5.52;83.29
14089;BME280;7120;52.890;6.040;2023-01-29T02:57:36;102761.09;;;5.46;83.92
14089;BME280;7120;52.890;6.040;2023-01-29T03:00:09;102764.72;;;5.65;83.67
14089;BME280;7120;52.890;6.040;2023-01-29T03:02:43;102763.00;;;5.71;82.11
14089;BME280;7120;52.890;6.040;2023-01-29T03:05:15;102754.41;;;5.74;82.19
14089;BME280;7120;52.890;6.040;2023-01-29T03:07:48;102759.88;;;5.67;82.20
14089;BME280;7120;52.890;6.040;2023-01-29T03:10:23;102762.56;;;5.74;82.23
14089;BME280;7120;52.890;6.040;2023-01-29T03:12:59;102744.66;;;5.66;82.43
14089;BME280;7120;52.890;6.040;2023-01-29T03:15:34;102750.13;;;5.85;82.06
14089;BME280;7120;52.890;6.040;2023-01-29T03:18:07;102732.53;;;5.69;82.31
14089;BME280;7120;52.890;6.040;2023-01-29T03:20:42;102724.72;;;5.79;81.75
14089;BME280;7120;52.890;6.040;2023-01-29T03:23:30;102717.50;;;5.91;81.55
14089;BME280;7120;52.890;6.040;2023-01-29T03:26:19;102707.53;;;5.85;81.46
14089;BME280;7120;52.890;6.040;2023-01-29T03:29:05;102716.31;;;6.05;81.15
14089;BME280;7120;52.890;6.040;2023-01-29T03:31:51;102704.47;;;5.75;80.91
14089;BME280;7120;52.890;6.040;2023-01-29T03:34:42;102713.75;;;5.67;81.79
14089;BME280;7120;52.890;6.040;2023-01-29T03:37:20;102714.50;;;5.74;81.80
14089;BME280;7120;52.890;6.040;2023-01-29T03:39:48;102704.81;;;5.85;81.48
14089;BME280;7120;52.890;6.040;2023-01-29T03:45:36;102700.19;;;5.92;81.14
14089;BME280;7120;52.890;6.040;2023-01-29T03:48:16;102706.38;;;5.74;81.54
14089;BME280;7120;52.890;6.040;2023-01-29T03:50:57;102700.63;;;5.64;82.60
14089;BME280;7120;52.890;6.040;2023-01-29T03:53:54;102708.25;;;5.74;81.96
14089;BME280;7120;52.890;6.040;2023-01-29T04:01:47;102714.53;;;5.99;80.28
14089;BME280;7120;52.890;6.040;2023-01-29T04:06:51;102702.66;;;5.94;80.11
14089;BME280;7120;52.890;6.040;2023-01-29T04:09:24;102690.13;;;6.11;79.86
14089;BME280;7120;52.890;6.040;2023-01-29T04:12:01;102695.88;;;6.03;79.85
14089;BME280;7120;52.890;6.040;2023-01-29T04:14:28;102694.16;;;5.84;80.92
14089;BME280;7120;52.890;6.040;2023-01-29T04:16:57;102702.69;;;5.87;81.04
14089;BME280;7120;52.890;6.040;2023-01-29T04:19:24;102705.53;;;6.17;79.96
14089;BME280;7120;52.890;6.040;2023-01-29T04:21:59;102702.66;;;6.12;81.00
14089;BME280;7120;52.890;6.040;2023-01-29T04:24:26;102698.13;;;6.06;80.23
14089;BME280;7120;52.890;6.040;2023-01-29T04:28:03;102701.47;;;6.08;80.07
14089;BME280;7120;52.890;6.040;2023-01-29T04:30:16;102701.25;;;5.85;81.13
14089;BME280;7120;52.890;6.040;2023-01-29T04:38:00;102682.69;;;5.82;80.00
14089;BME280;7120;52.890;6.040;2023-01-29T04:43:06;102688.25;;;6.12;80.03
14089;BME280;7120;52.890;6.040;2023-01-29T04:48:27;102684.81;;;5.79;80.22
14089;BME280;7120;52.890;6.040;2023-01-29T04:53:47;102702.22;;;5.90;80.67
14089;BME280;7120;52.890;6.040;2023-01-29T04:56:30;102709.59;;;5.65;82.23
14089;BME280;7120;52.890;6.040;2023-01-29T04:59:13;102708.56;;;5.84;81.32
14089;BME280;7120;52.890;6.040;2023-01-29T05:01:40;102706.06;;;5.83;80.92
14089;BME280;7120;52.890;6.040;2023-01-29T05:04:11;102709.78;;;5.88;81.63
14089;BME280;7120;52.890;6.040;2023-01-29T05:06:38;102709.25;;;5.79;81.52
14089;BME280;7120;52.890;6.040;2023-01-29T05:09:04;102705.97;;;5.96;82.08
14089;BME280;7120;52.890;6.040;2023-01-29T05:11:31;102700.34;;;5.72;81.80
14089;BME280;7120;52.890;6.040;2023-01-29T05:13:58;102699.44;;;5.78;82.42
14089;BME280;7120;52.890;6.040;2023-01-29T05:16:28;102689.31;;;5.67;82.89
14089;BME280;7120;52.890;6.040;2023-01-29T05:18:54;102680.66;;;5.77;82.19
14089;BME280;7120;52.890;6.040;2023-01-29T05:21:20;102669.28;;;5.87;81.43
14089;BME280;7120;52.890;6.040;2023-01-29T05:24:08;102668.44;;;5.68;82.64
14089;BME280;7120;52.890;6.040;2023-01-29T05:26:33;102667.72;;;5.54;82.98
14089;BME280;7120;52.890;6.040;2023-01-29T05:29:17;102658.00;;;5.46;83.34
14089;BME280;7120;52.890;6.040;2023-01-29T05:31:43;102643.63;;;5.64;82.37
14089;BME280;7120;52.890;6.040;2023-01-29T05:34:09;102657.94;;;5.53;82.62
14089;BME280;7120;52.890;6.040;2023-01-29T05:36:34;102655.75;;;5.62;82.46
14089;BME280;7120;52.890;6.040;2023-01-29T05:39:00;102638.41;;;5.63;81.87
14089;BME280;7120;52.890;6.040;2023-01-29T05:41:25;102650.38;;;5.55;81.88
14089;BME280;7120;52.890;6.040;2023-01-29T05:43:51;102634.97;;;5.74;82.54
14089;BME280;7120;52.890;6.040;2023-01-29T05:46:16;102626.59;;;5.57;82.23
14089;BME280;7120;52.890;6.040;2023-01-29T05:48:41;102633.50;;;5.53;82.52
14089;BME280;7120;52.890;6.040;2023-01-29T05:51:06;102635.16;;;5.54;82.05
14089;BME280;7120;52.890;6.040;2023-01-29T05:53:32;102629.00;;;5.65;81.76
14089;BME280;7120;52.890;6.040;2023-01-29T05:56:02;102631.25;;;5.68;81.68
14089;BME280;7120;52.890;6.040;2023-01-29T05:58:31;102611.69;;;5.41;82.46
14089;BME280;7120;52.890;6.040;2023-01-29T06:00:57;102626.19;;;5.54;81.55
14089;BME280;7120;52.890;6.040;2023-01-29T06:03:22;102631.09;;;5.45;82.52
14089;BME280;7120;52.890;6.040;2023-01-29T06:05:47;102614.97;;;5.50;83.27
14089;BME280;7120;52.890;6.040;2023-01-29T06:08:13;102615.81;;;5.50;82.96
14089;BME280;7120;52.890;6.040;2023-01-29T06:10:38;102609.75;;;5.48;83.50
14089;BME280;7120;52.890;6.040;2023-01-29T06:13:03;102621.13;;;5.39;84.19
14089;BME280;7120;52.890;6.040;2023-01-29T06:15:29;102627.91;;;5.30;84.04
14089;BME280;7120;52.890;6.040;2023-01-29T06:17:55;102618.16;;;5.22;84.80
14089;BME280;7120;52.890;6.040;2023-01-29T06:20:20;102613.00;;;5.39;84.99
14089;BME280;7120;52.890;6.040;2023-01-29T06:22:46;102611.50;;;5.18;85.37
14089;BME280;7120;52.890;6.040;2023-01-29T06:25:11;102595.41;;;5.23;85.45
14089;BME280;7120;52.890;6.040;2023-01-29T06:27:36;102582.72;;;5.17;86.35
14089;BME280;7120;52.890;6.040;2023-01-29T06:30:06;102599.78;;;4.99;86.34
14089;BME280;7120;52.890;6.040;2023-01-29T06:32:31;102600.78;;;5.05;86.33
14089;BME280;7120;52.890;6.040;2023-01-29T06:34:57;102608.69;;;5.06;85.90
14089;BME280;7120;52.890;6.040;2023-01-29T06:37:22;102618.59;;;5.44;85.48
14089;BME280;7120;52.890;6.040;2023-01-29T06:39:47;102599.25;;;5.34;85.51
14089;BME280;7120;52.890;6.040;2023-01-29T06:42:13;102601.78;;;5.10;86.07
14089;BME280;7120;52.890;6.040;2023-01-29T06:44:38;102622.78;;;5.40;84.83
14089;BME280;7120;52.890;6.040;2023-01-29T06:47:03;102601.13;;;5.33;84.90
14089;BME280;7120;52.890;6.040;2023-01-29T06:49:29;102611.91;;;5.21;85.08
14089;BME280;7120;52.890;6.040;2023-01-29T06:51:54;102609.88;;;5.35;85.17
14089;BME280;7120;52.890;6.040;2023-01-29T06:54:19;102613.28;;;5.31;85.56
14089;BME280;7120;52.890;6.040;2023-01-29T06:56:45;102618.81;;;5.17;86.02
14089;BME280;7120;52.890;6.040;2023-01-29T06:59:10;102598.13;;;5.23;85.41
14089;BME280;7120;52.890;6.040;2023-01-29T07:01:40;102601.66;;;5.23;85.46
14089;BME280;7120;52.890;6.040;2023-01-29T07:04:08;102607.63;;;5.32;84.82
14089;BME280;7120;52.890;6.040;2023-01-29T07:06:34;102595.41;;;5.23;84.79
14089;BME280;7120;52.890;6.040;2023-01-29T07:09:00;102610.47;;;5.19;85.16
14089;BME280;7120;52.890;6.040;2023-01-29T07:11:25;102582.22;;;5.27;85.29
14089;BME280;7120;52.890;6.040;2023-01-29T07:13:51;102588.38;;;5.15;85.11
14089;BME280;7120;52.890;6.040;2023-01-29T07:16:16;102590.81;;;5.42;85.08
14089;BME280;7120;52.890;6.040;2023-01-29T07:18:43;102585.31;;;5.30;84.37
14089;BME280;7120;52.890;6.040;2023-01-29T07:21:08;102585.63;;;5.22;85.21
14089;BME280;7120;52.890;6.040;2023-01-29T07:23:34;102593.88;;;5.27;85.01
14089;BME280;7120;52.890;6.040;2023-01-29T07:26:01;102571.13;;;5.28;84.82
14089;BME280;7120;52.890;6.040;2023-01-29T07:28:27;102579.84;;;5.37;84.77
14089;BME280;7120;52.890;6.040;2023-01-29T07:30:58;102588.88;;;5.31;84.84
14089;BME280;7120;52.890;6.040;2023-01-29T07:33:24;102587.16;;;5.11;85.08
14089;BME280;7120;52.890;6.040;2023-01-29T07:35:50;102563.97;;;5.15;85.18
14089;BME280;7120;52.890;6.040;2023-01-29T07:38:15;102566.06;;;5.13;85.14
14089;BME280;7120;52.890;6.040;2023-01-29T07:40:41;102565.75;;;5.03;85.46
14089;BME280;7120;52.890;6.040;2023-01-29T07:43:08;102573.25;;;5.26;85.00
14089;BME280;7120;52.890;6.040;2023-01-29T07:45:35;102563.75;;;5.35;85.11
14089;BME280;7120;52.890;6.040;2023-01-29T07:48:01;102567.53;;;5.34;84.34
14089;BME280;7120;52.890;6.040;2023-01-29T07:50:26;102560.16;;;5.60;84.04
14089;BME280;7120;52.890;6.040;2023-01-29T07:52:55;102560.31;;;5.65;83.30
14089;BME280;7120;52.890;6.040;2023-01-29T07:55:21;102562.22;;;5.64;83.61
14089;BME280;7120;52.890;6.040;2023-01-29T07:57:46;102559.78;;;5.56;83.07
14089;BME280;7120;52.890;6.040;2023-01-29T08:00:12;102557.91;;;5.75;82.59
14089;BME280;7120;52.890;6.040;2023-01-29T08:02:40;102539.06;;;5.62;82.07
14089;BME280;7120;52.890;6.040;2023-01-29T08:05:06;102547.47;;;5.35;83.56
14089;BME280;7120;52.890;6.040;2023-01-29T08:07:31;102547.34;;;5.67;82.77
14089;BME280;7120;52.890;6.040;2023-01-29T08:09:56;102544.97;;;5.89;82.25
14089;BME280;7120;52.890;6.040;2023-01-29T08:12:22;102530.63;;;5.51;82.99
14089;BME280;7120;52.890;6.040;2023-01-29T08:14:47;102541.41;;;5.58;82.99
14089;BME280;7120;52.890;6.040;2023-01-29T08:17:13;102535.34;;;5.56;83.65
14089;BME280;7120;52.890;6.040;2023-01-29T08:19:38;102529.25;;;5.42;84.38
14089;BME280;7120;52.890;6.040;2023-01-29T08:22:04;102541.63;;;5.38;84.20
14089;BME280;7120;52.890;6.040;2023-01-29T08:24:30;102534.75;;;5.54;84.80
14089;BME280;7120;52.890;6.040;2023-01-29T08:26:55;102553.84;;;5.66;85.81
14089;BME280;7120;52.890;6.040;2023-01-29T08:29:21;102544.78;;;5.54;85.11
14089;BME280;7120;52.890;6.040;2023-01-29T08:31:46;102544.56;;;5.55;86.01
14089;BME280;7120;52.890;6.040;2023-01-29T08:34:12;102544.69;;;5.42;85.88
14089;BME280;7120;52.890;6.040;2023-01-29T08:36:37;102523.16;;;5.47;85.83
14089;BME280;7120;52.890;6.040;2023-01-29T08:39:02;102537.94;;;5.51;85.99
14089;BME280;7120;52.890;6.040;2023-01-29T08:41:28;102519.16;;;5.49;86.19
14089;BME280;7120;52.890;6.040;2023-01-29T08:43:53;102521.50;;;5.46;85.02
14089;BME280;7120;52.890;6.040;2023-01-29T08:46:19;102507.94;;;5.46;85.45
14089;BME280;7120;52.890;6.040;2023-01-29T08:48:44;102505.00;;;5.29;84.94
14089;BME280;7120;52.890;6.040;2023-01-29T08:51:09;102507.53;;;5.61;84.46
14089;BME280;7120;52.890;6.040;2023-01-29T08:53:35;102513.13;;;5.66;83.65
14089;BME280;7120;52.890;6.040;2023-01-29T08:56:00;102511.75;;;5.57;84.44
14089;BME280;7120;52.890;6.040;2023-01-29T08:58:26;102509.59;;;5.65;84.50
14089;BME280;7120;52.890;6.040;2023-01-29T09:00:51;102508.69;;;5.71;83.38
14089;BME280;7120;52.890;6.040;2023-01-29T09:03:16;102516.03;;;5.83;83.00
14089;BME280;7120;52.890;6.040;2023-01-29T09:05:42;102508.13;;;5.81;82.89
14089;BME280;7120;52.890;6.040;2023-01-29T09:08:08;102512.22;;;5.72;84.02
14089;BME280;7120;52.890;6.040;2023-01-29T09:10:34;102512.34;;;5.95;83.43
14089;BME280;7120;52.890;6.040;2023-01-29T09:12:59;102499.59;;;5.77;83.14
14089;BME280;7120;52.890;6.040;2023-01-29T09:15:25;102505.50;;;5.74;82.61
14089;BME280;7120;52.890;6.040;2023-01-29T09:17:51;102500.47;;;5.90;82.67
14089;BME280;7120;52.890;6.040;2023-01-29T09:20:17;102503.38;;;5.95;81.73
14089;BME280;7120;52.890;6.040;2023-01-29T09:22:44;102509.69;;;5.89;81.70
14089;BME280;7120;52.890;6.040;2023-01-29T09:25:09;102507.00;;;6.19;81.85
14089;BME280;7120;52.890;6.040;2023-01-29T09:27:35;102504.66;;;5.92;81.51
14089;BME280;7120;52.890;6.040;2023-01-29T09:30:01;102511.25;;;6.15;81.46
14089;BME280;7120;52.890;6.040;2023-01-29T09:32:27;102498.91;;;6.00;81.18
14089;BME280;7120;52.890;6.040;2023-01-29T09:34:55;102505.72;;;5.91;82.18
14089;BME280;7120;52.890;6.040;2023-01-29T09:37:20;102505.72;;;5.91;82.74
14089;BME280;7120;52.890;6.040;2023-01-29T09:39:47;102500.50;;;6.20;83.07
14089;BME280;7120;52.890;6.040;2023-01-29T09:42:37;102495.72;;;6.03;83.29
14089;BME280;7120;52.890;6.040;2023-01-29T09:45:20;102509.16;;;6.28;83.30
14089;BME280;7120;52.890;6.040;2023-01-29T09:47:49;102498.69;;;6.02;82.68
14089;BME280;7120;52.890;6.040;2023-01-29T09:50:37;102498.19;;;6.05;83.98
14089;BME280;7120;52.890;6.040;2023-01-29T09:53:19;102497.72;;;5.96;83.94
14089;BME280;7120;52.890;6.040;2023-01-29T09:55:55;102492.78;;;6.05;84.68
14089;BME280;7120;52.890;6.040;2023-01-29T09:58:37;102491.34;;;6.02;84.67
14089;BME280;7120;52.890;6.040;2023-01-29T10:18:05;102474.94;;;5.79;87.90
14089;BME280;7120;52.890;6.040;2023-01-29T10:20:34;102474.75;;;5.62;87.98
14089;BME280;7120;52.890;6.040;2023-01-29T10:25:43;102471.03;;;5.75;87.91
14089;BME280;7120;52.890;6.040;2023-01-29T10:28:43;102465.59;;;5.75;88.17
14089;BME280;7120;52.890;6.040;2023-01-29T10:31:31;102480.44;;;5.91;88.87
14089;BME280;7120;52.890;6.040;2023-01-29T10:34:15;102474.38;;;6.07;87.54
14089;BME280;7120;52.890;6.040;2023-01-29T10:36:47;102460.56;;;5.90;87.66
14089;BME280;7120;52.890;6.040;2023-01-29T10:39:18;102459.59;;;5.55;88.67
14089;BME280;7120;52.890;6.040;2023-01-29T10:42:14;102472.59;;;5.83;89.43
14089;BME280;7120;52.890;6.040;2023-01-29T10:47:37;102460.56;;;6.09;89.87
14089;BME280;7120;52.890;6.040;2023-01-29T10:53:05;102444.53;;;6.30;87.02
14089;BME280;7120;52.890;6.040;2023-01-29T10:58:31;102437.53;;;6.11;87.70
14089;BME280;7120;52.890;6.040;2023-01-29T11:00:58;102420.69;;;6.44;86.04
14089;BME280;7120;52.890;6.040;2023-01-29T11:03:28;102429.78;;;6.38;85.77
14089;BME280;7120;52.890;6.040;2023-01-29T11:06:07;102420.91;;;6.31;86.19
14089;BME280;7120;52.890;6.040;2023-01-29T11:11:45;102409.13;;;6.72;83.98
14089;BME280;7120;52.890;6.040;2023-01-29T11:14:27;102399.88;;;6.61;84.41
14089;BME280;7120;52.890;6.040;2023-01-29T11:16:54;102404.84;;;6.76;83.88
14089;BME280;7120;52.890;6.040;2023-01-29T11:19:36;102402.59;;;6.73;82.94
14089;BME280;7120;52.890;6.040;2023-01-29T11:22:02;102382.84;;;6.89;83.49
14089;BME280;7120;52.890;6.040;2023-01-29T11:24:29;102385.09;;;6.69;82.50
14089;BME280;7120;52.890;6.040;2023-01-29T11:26:57;102375.31;;;6.56;83.25
14089;BME280;7120;52.890;6.040;2023-01-29T11:31:52;102380.53;;;6.35;84.61
14089;BME280;7120;52.890;6.040;2023-01-29T11:34:21;102367.88;;;6.52;84.84
14089;BME280;7120;52.890;6.040;2023-01-29T11:37:14;102381.47;;;6.40;85.52
14089;BME280;7120;52.890;6.040;2023-01-29T11:39:44;102366.94;;;6.35;87.28
14089;BME280;7120;52.890;6.040;2023-01-29T11:42:19;102366.22;;;6.39;88.42
14089;BME280;7120;52.890;6.040;2023-01-29T11:44:45;102360.34;;;6.42;88.07
14089;BME280;7120;52.890;6.040;2023-01-29T11:49:48;102365.03;;;6.47;88.70
14089;BME280;7120;52.890;6.040;2023-01-29T11:52:16;102353.22;;;6.65;86.68
14089;BME280;7120;52.890;6.040;2023-01-29T11:54:57;102343.28;;;6.58;86.99
14089;BME280;7120;52.890;6.040;2023-01-29T11:59:50;102337.28;;;6.97;85.58
14089;BME280;7120;52.890;6.040;2023-01-29T12:02:22;102342.84;;;7.02;85.55
14089;BME280;7120;52.890;6.040;2023-01-29T12:04:51;102328.81;;;6.81;85.91
14089;BME280;7120;52.890;6.040;2023-01-29T12:07:18;102326.84;;;6.65;86.80
14089;BME280;7120;52.890;6.040;2023-01-29T12:09:55;102323.69;;;6.97;86.51
14089;BME280;7120;52.890;6.040;2023-01-29T12:12:33;102308.72;;;6.82;86.75
14089;BME280;7120;52.890;6.040;2023-01-29T12:17:32;102311.78;;;6.86;86.65
14089;BME280;7120;52.890;6.040;2023-01-29T12:20:04;102302.44;;;6.94;86.63
14089;BME280;7120;52.890;6.040;2023-01-29T12:23:20;102294.53;;;6.80;87.16
14089;BME280;7120;52.890;6.040;2023-01-29T12:26:10;102290.56;;;6.59;87.67
14089;BME280;7120;52.890;6.040;2023-01-29T12:34:21;102276.41;;;6.57;89.74
14089;BME280;7120;52.890;6.040;2023-01-29T12:36:53;102254.44;;;6.47;90.53
14089;BME280;7120;52.890;6.040;2023-01-29T12:39:19;102252.22;;;6.32;90.83
14089;BME280;7120;52.890;6.040;2023-01-29T12:41:46;102233.06;;;6.39;90.93
14089;BME280;7120;52.890;6.040;2023-01-29T12:46:50;102232.75;;;6.24;92.74
14089;BME280;7120;52.890;6.040;2023-01-29T12:49:21;102226.56;;;6.40;91.93
14089;BME280;7120;52.890;6.040;2023-01-29T12:51:56;102203.97;;;6.51;92.11
14089;BME280;7120;52.890;6.040;2023-01-29T12:54:32;102203.69;;;6.24;91.20
14089;BME280;7120;52.890;6.040;2023-01-29T12:57:02;102205.78;;;6.46;92.84
14089;BME280;7120;52.890;6.040;2023-01-29T12:59:45;102206.78;;;6.16;92.31
14089;BME280;7120;52.890;6.040;2023-01-29T13:02:34;102195.09;;;6.16;92.59
14089;BME280;7120;52.890;6.040;2023-01-29T13:07:38;102178.09;;;6.09;93.55
14089;BME280;7120;52.890;6.040;2023-01-29T13:10:10;102172.06;;;6.18;92.83
14089;BME280;7120;52.890;6.040;2023-01-29T13:12:41;102151.19;;;6.07;93.05
14089;BME280;7120;52.890;6.040;2023-01-29T13:15:28;102161.44;;;6.05;93.49
14089;BME280;7120;52.890;6.040;2023-01-29T13:18:30;102164.16;;;6.17;93.82
14089;BME280;7120;52.890;6.040;2023-01-29T13:20:53;102163.59;;;6.03;93.03
14089;BME280;7120;52.890;6.040;2023-01-29T13:23:39;102148.69;;;6.17;93.49
14089;BME280;7120;52.890;6.040;2023-01-29T13:26:07;102127.38;;;6.26;92.74
14089;BME280;7120;52.890;6.040;2023-01-29T13:28:33;102135.47;;;6.21;92.90
14089;BME280;7120;52.890;6.040;2023-01-29T13:31:12;102144.94;;;6.07;92.60
14089;BME280;7120;52.890;6.040;2023-01-29T13:33:41;102144.81;;;5.90;93.47
14089;BME280;7120;52.890;6.040;2023-01-29T13:36:13;102140.69;;;5.87;94.45
14089;BME280;7120;52.890;6.040;2023-01-29T13:38:41;102132.53;;;5.99;94.68
14089;BME280;7120;52.890;6.040;2023-01-29T13:41:09;102131.38;;;5.95;94.27
14089;BME280;7120;52.890;6.040;2023-01-29T13:43:40;102123.69;;;5.92;93.78
14089;BME280;7120;52.890;6.040;2023-01-29T13:46:14;102122.53;;;5.99;93.96
14089;BME280;7120;52.890;6.040;2023-01-29T13:48:44;102125.06;;;6.06;93.78
14089;BME280;7120;52.890;6.040;2023-01-29T13:51:13;102128.91;;;5.93;94.27
14089;BME280;7120;52.890;6.040;2023-01-29T13:54:12;102113.66;;;5.81;94.57
14089;BME280;7120;52.890;6.040;2023-01-29T13:56:42;102116.47;;;6.09;94.58
14089;BME280;7120;52.890;6.040;2023-01-29T13:59:21;102105.53;;;5.92;94.64
14089;BME280;7120;52.890;6.040;2023-01-29T14:06:51;102093.81;;;5.92;95.04
14089;BME280;7120;52.890;6.040;2023-01-29T14:11:58;102090.50;;;5.90;95.36
14089;BME280;7120;52.890;6.040;2023-01-29T14:15:17;102082.97;;;5.92;94.14
14089;BME280;7120;52.890;6.040;2023-01-29T14:17:34;102074.53;;;5.65;95.14
14089;BME280;7120;52.890;6.040;2023-01-29T14:20:15;102080.28;;;5.68;95.95
14089;BME280;7120;52.890;6.040;2023-01-29T14:22:41;102065.56;;;5.64;96.31
14089;BME280;7120;52.890;6.040;2023-01-29T14:25:16;102074.59;;;5.82;95.15
14089;BME280;7120;52.890;6.040;2023-01-29T14:27:49;102067.28;;;5.82;95.43
14089;BME280;7120;52.890;6.040;2023-01-29T14:30:16;102069.41;;;5.80;94.83
14089;BME280;7120;52.890;6.040;2023-01-29T14:32:47;102058.59;;;5.57;95.97
14089;BME280;7120;52.890;6.040;2023-01-29T14:35:17;102066.38;;;5.65;95.50
14089;BME280;7120;52.890;6.040;2023-01-29T14:37:46;102055.84;;;5.68;95.47
14089;BME280;7120;52.890;6.040;2023-01-29T14:43:02;102068.59;;;5.68;95.01
14089;BME280;7120;52.890;6.040;2023-01-29T14:45:39;102055.47;;;5.76;95.58
14089;BME280;7120;52.890;6.040;2023-01-29T14:53:03;102048.53;;;5.92;94.97
14089;BME280;7120;52.890;6.040;2023-01-29T14:55:40;102032.22;;;5.81;94.73
14089;BME280;7120;52.890;6.040;2023-01-29T14:58:15;102038.13;;;5.77;94.94
14089;BME280;7120;52.890;6.040;2023-01-29T15:00:44;102046.84;;;5.91;94.95
14089;BME280;7120;52.890;6.040;2023-01-29T15:03:32;102033.88;;;5.93;94.61
14089;BME280;7120;52.890;6.040;2023-01-29T15:06:00;102018.41;;;5.82;94.35
14089;BME280;7120;52.890;6.040;2023-01-29T15:08:34;102035.03;;;5.97;94.85
14089;BME280;7120;52.890;6.040;2023-01-29T15:11:25;102037.03;;;5.90;94.83
14089;BME280;7120;52.890;6.040;2023-01-29T15:16:58;102024.72;;;5.71;93.98
14089;BME280;7120;52.890;6.040;2023-01-29T15:24:31;102021.00;;;5.89;93.80
14089;BME280;7120;52.890;6.040;2023-01-29T15:26:56;102025.25;;;5.96;94.10